sensor_id;sensor_type;location;lat;lon;timestamp;P1;durP1;ratioP1;P2;durP2;ratioP2
14241;SDS011;7205;50.864;12.766;2024-02-04T00:02:12;0.40;;;0.40;;
14241;SDS011;7205;50.864;12.766;2024-02-04T00:04:39;0.47;;;0.47;;
14241;SDS011;7205;50.864;12.766;2024-02-04T00:07:06;0.90;;;0.40;;
14241;SDS011;7205;50.864;12.766;2024-02-04T00:09:34;0.60;;;0.50;;
14241;SDS011;7205;50.864;12.766;2024-02-04T00:12:01;0.60;;;0.60;;
14241;SDS011;7205;50.864;12.766;2024-02-04T00:14:29;0.60;;;0.60;;
14241;SDS011;7205;50.864;12.766;2024-02-04T00:16:56;0.30;;;0.30;;
14241;SDS011;7205;50.864;12.766;2024-02-04T00:19:23;0.30;;;0.30;;
14241;SDS011;7205;50.864;12.766;2024-02-04T00:21:50;0.30;;;0.30;;
14241;SDS011;7205;50.864;12.766;2024-02-04T00:24:16;0.40;;;0.40;;
14241;SDS011;7205;50.864;12.766;2024-02-04T00:26:45;0.37;;;0.37;;
14241;SDS011;7205;50.864;12.766;2024-02-04T00:29:12;0.40;;;0.40;;
14241;SDS011;7205;50.864;12.766;2024-02-04T00:31:39;0.40;;;0.40;;
14241;SDS011;7205;50.864;12.766;2024-02-04T00:34:06;0.73;;;0.60;;
14241;SDS011;7205;50.864;12.766;2024-02-04T00:36:36;0.50;;;0.50;;
14241;SDS011;7205;50.864;12.766;2024-02-04T00:39:03;0.53;;;0.53;;
14241;SDS011;7205;50.864;12.766;2024-02-04T00:41:30;0.83;;;0.63;;
14241;SDS011;7205;50.864;12.766;2024-02-04T00:43:58;0.80;;;0.70;;
14241;SDS011;7205;50.864;12.766;2024-02-04T00:46:26;0.97;;;0.90;;
14241;SDS011;7205;50.864;12.766;2024-02-04T00:48:53;0.70;;;0.70;;
14241;SDS011;7205;50.864;12.766;2024-02-04T00:51:20;0.97;;;0.90;;
14241;SDS011;7205;50.864;12.766;2024-02-04T00:53:46;1.90;;;0.50;;
14241;SDS011;7205;50.864;12.766;2024-02-04T00:56:13;0.73;;;0.73;;
14241;SDS011;7205;50.864;12.766;2024-02-04T00:58:40;0.70;;;0.63;;
14241;SDS011;7205;50.864;12.766;2024-02-04T01:01:08;0.50;;;0.50;;
14241;SDS011;7205;50.864;12.766;2024-02-04T01:03:36;0.87;;;0.87;;
14241;SDS011;7205;50.864;12.766;2024-02-04T01:06:03;0.70;;;0.70;;
14241;SDS011;7205;50.864;12.766;2024-02-04T01:08:30;0.70;;;0.70;;
14241;SDS011;7205;50.864;12.766;2024-02-04T01:10:56;0.70;;;0.70;;
14241;SDS011;7205;50.864;12.766;2024-02-04T01:13:23;0.90;;;0.90;;
14241;SDS011;7205;50.864;12.766;2024-02-04T01:15:50;0.77;;;0.77;;
14241;SDS011;7205;50.864;12.766;2024-02-04T01:18:18;0.80;;;0.80;;
14241;SDS011;7205;50.864;12.766;2024-02-04T01:20:45;1.63;;;1.00;;
14241;SDS011;7205;50.864;12.766;2024-02-04T01:23:12;1.00;;;1.00;;
14241;SDS011;7205;50.864;12.766;2024-02-04T01:25:42;0.70;;;0.70;;
14241;SDS011;7205;50.864;12.766;2024-02-04T01:28:09;1.47;;;1.00;;
14241;SDS011;7205;50.864;12.766;2024-02-04T01:30:36;0.80;;;0.80;;
14241;SDS011;7205;50.864;12.766;2024-02-04T01:33:03;1.23;;;0.90;;
14241;SDS011;7205;50.864;12.766;2024-02-04T01:35:33;1.60;;;0.90;;
14241;SDS011;7205;50.864;12.766;2024-02-04T01:38:00;1.17;;;1.17;;
14241;SDS011;7205;50.864;12.766;2024-02-04T01:40:27;1.20;;;1.20;;
14241;SDS011;7205;50.864;12.766;2024-02-04T01:42:53;1.20;;;1.20;;
14241;SDS011;7205;50.864;12.766;2024-02-04T01:45:21;1.10;;;1.10;;
14241;SDS011;7205;50.864;12.766;2024-02-04T01:47:48;1.30;;;1.20;;
14241;SDS011;7205;50.864;12.766;2024-02-04T01:50:15;1.13;;;1.13;;
14241;SDS011;7205;50.864;12.766;2024-02-04T01:52:44;1.10;;;1.00;;
14241;SDS011;7205;50.864;12.766;2024-02-04T01:55:11;1.20;;;1.10;;
14241;SDS011;7205;50.864;12.766;2024-02-04T01:57:38;1.47;;;1.10;;
14241;SDS011;7205;50.864;12.766;2024-02-04T02:00:06;1.03;;;1.03;;
14241;SDS011;7205;50.864;12.766;2024-02-04T02:02:38;1.27;;;1.20;;
14241;SDS011;7205;50.864;12.766;2024-02-04T02:05:06;1.30;;;1.20;;
14241;SDS011;7205;50.864;12.766;2024-02-04T02:07:33;1.07;;;1.07;;
14241;SDS011;7205;50.864;12.766;2024-02-04T02:10:02;1.03;;;1.03;;
14241;SDS011;7205;50.864;12.766;2024-02-04T02:12:33;1.30;;;0.97;;
14241;SDS011;7205;50.864;12.766;2024-02-04T02:15:11;0.80;;;0.80;;
14241;SDS011;7205;50.864;12.766;2024-02-04T02:17:45;0.73;;;0.73;;
14241;SDS011;7205;50.864;12.766;2024-02-04T02:20:19;1.23;;;0.97;;
14241;SDS011;7205;50.864;12.766;2024-02-04T02:22:49;0.90;;;0.90;;
14241;SDS011;7205;50.864;12.766;2024-02-04T02:25:27;0.80;;;0.80;;
14241;SDS011;7205;50.864;12.766;2024-02-04T02:27:54;0.80;;;0.80;;
14241;SDS011;7205;50.864;12.766;2024-02-04T02:30:20;2.40;;;0.87;;
14241;SDS011;7205;50.864;12.766;2024-02-04T02:32:48;1.60;;;0.70;;
14241;SDS011;7205;50.864;12.766;2024-02-04T02:35:16;1.87;;;0.80;;
14241;SDS011;7205;50.864;12.766;2024-02-04T02:37:44;0.80;;;0.80;;
14241;SDS011;7205;50.864;12.766;2024-02-04T02:40:19;0.70;;;0.70;;
14241;SDS011;7205;50.864;12.766;2024-02-04T02:42:51;0.80;;;0.80;;
14241;SDS011;7205;50.864;12.766;2024-02-04T02:45:19;0.80;;;0.77;;
14241;SDS011;7205;50.864;12.766;2024-02-04T02:47:47;0.70;;;0.70;;
14241;SDS011;7205;50.864;12.766;2024-02-04T02:50:16;0.83;;;0.83;;
14241;SDS011;7205;50.864;12.766;2024-02-04T02:52:43;0.50;;;0.50;;
14241;SDS011;7205;50.864;12.766;2024-02-04T02:55:10;0.80;;;0.80;;
14241;SDS011;7205;50.864;12.766;2024-02-04T02:57:37;0.60;;;0.60;;
14241;SDS011;7205;50.864;12.766;2024-02-04T03:00:06;1.90;;;0.73;;
14241;SDS011;7205;50.864;12.766;2024-02-04T03:02:34;0.70;;;0.70;;
14241;SDS011;7205;50.864;12.766;2024-02-04T03:05:01;0.70;;;0.70;;
14241;SDS011;7205;50.864;12.766;2024-02-04T03:07:28;0.60;;;0.60;;
14241;SDS011;7205;50.864;12.766;2024-02-04T03:09:55;1.67;;;0.50;;
14241;SDS011;7205;50.864;12.766;2024-02-04T03:12:22;0.53;;;0.53;;
14241;SDS011;7205;50.864;12.766;2024-02-04T03:14:49;0.70;;;0.70;;
14241;SDS011;7205;50.864;12.766;2024-02-04T03:17:18;0.60;;;0.60;;
14241;SDS011;7205;50.864;12.766;2024-02-04T03:19:46;0.50;;;0.50;;
14241;SDS011;7205;50.864;12.766;2024-02-04T03:22:14;0.57;;;0.57;;
14241;SDS011;7205;50.864;12.766;2024-02-04T03:24:41;0.60;;;0.60;;
14241;SDS011;7205;50.864;12.766;2024-02-04T03:27:07;1.23;;;0.77;;
14241;SDS011;7205;50.864;12.766;2024-02-04T03:29:34;2.50;;;0.90;;
14241;SDS011;7205;50.864;12.766;2024-02-04T03:32:01;0.60;;;0.60;;
14241;SDS011;7205;50.864;12.766;2024-02-04T03:34:30;0.73;;;0.73;;
14241;SDS011;7205;50.864;12.766;2024-02-04T03:36:57;0.90;;;0.90;;
14241;SDS011;7205;50.864;12.766;2024-02-04T03:39:24;0.80;;;0.80;;
14241;SDS011;7205;50.864;12.766;2024-02-04T03:41:51;0.70;;;0.70;;
14241;SDS011;7205;50.864;12.766;2024-02-04T03:44:19;0.90;;;0.90;;
14241;SDS011;7205;50.864;12.766;2024-02-04T03:46:47;0.70;;;0.70;;
14241;SDS011;7205;50.864;12.766;2024-02-04T03:49:14;0.90;;;0.90;;
14241;SDS011;7205;50.864;12.766;2024-02-04T03:51:42;0.93;;;0.93;;
14241;SDS011;7205;50.864;12.766;2024-02-04T03:54:09;0.87;;;0.87;;
14241;SDS011;7205;50.864;12.766;2024-02-04T03:56:36;1.30;;;1.20;;
14241;SDS011;7205;50.864;12.766;2024-02-04T03:59:03;1.93;;;1.83;;
14241;SDS011;7205;50.864;12.766;2024-02-04T04:01:31;2.90;;;2.70;;
14241;SDS011;7205;50.864;12.766;2024-02-04T04:03:58;1.80;;;1.70;;
14241;SDS011;7205;50.864;12.766;2024-02-04T04:06:25;3.73;;;3.10;;
14241;SDS011;7205;50.864;12.766;2024-02-04T04:08:53;3.80;;;3.50;;
14241;SDS011;7205;50.864;12.766;2024-02-04T04:11:20;1.20;;;1.20;;
14241;SDS011;7205;50.864;12.766;2024-02-04T04:13:48;1.40;;;1.30;;
14241;SDS011;7205;50.864;12.766;2024-02-04T04:16:14;1.40;;;1.00;;
14241;SDS011;7205;50.864;12.766;2024-02-04T04:18:41;0.93;;;0.93;;
14241;SDS011;7205;50.864;12.766;2024-02-04T04:21:08;1.20;;;1.10;;
14241;SDS011;7205;50.864;12.766;2024-02-04T04:23:35;2.00;;;1.90;;
14241;SDS011;7205;50.864;12.766;2024-02-04T04:26:03;1.10;;;1.10;;
14241;SDS011;7205;50.864;12.766;2024-02-04T04:28:30;1.10;;;1.10;;
14241;SDS011;7205;50.864;12.766;2024-02-04T04:30:57;0.80;;;0.80;;
14241;SDS011;7205;50.864;12.766;2024-02-04T04:33:24;0.80;;;0.80;;
14241;SDS011;7205;50.864;12.766;2024-02-04T04:35:51;0.90;;;0.90;;
14241;SDS011;7205;50.864;12.766;2024-02-04T04:38:18;2.03;;;1.00;;
14241;SDS011;7205;50.864;12.766;2024-02-04T04:40:44;0.90;;;0.90;;
14241;SDS011;7205;50.864;12.766;2024-02-04T04:43:12;0.93;;;0.90;;
14241;SDS011;7205;50.864;12.766;2024-02-04T04:45:39;3.60;;;1.27;;
14241;SDS011;7205;50.864;12.766;2024-02-04T04:48:06;0.97;;;0.97;;
14241;SDS011;7205;50.864;12.766;2024-02-04T04:50:34;0.80;;;0.80;;
14241;SDS011;7205;50.864;12.766;2024-02-04T04:53:00;1.20;;;1.10;;
14241;SDS011;7205;50.864;12.766;2024-02-04T04:55:27;1.03;;;1.00;;
14241;SDS011;7205;50.864;12.766;2024-02-04T04:57:54;1.10;;;1.00;;
14241;SDS011;7205;50.864;12.766;2024-02-04T05:00:22;2.23;;;1.00;;
14241;SDS011;7205;50.864;12.766;2024-02-04T05:02:49;1.10;;;1.10;;
14241;SDS011;7205;50.864;12.766;2024-02-04T05:05:16;1.10;;;1.10;;
14241;SDS011;7205;50.864;12.766;2024-02-04T05:07:43;1.07;;;1.07;;
14241;SDS011;7205;50.864;12.766;2024-02-04T05:10:12;1.20;;;1.20;;
14241;SDS011;7205;50.864;12.766;2024-02-04T05:12:38;0.80;;;0.80;;
14241;SDS011;7205;50.864;12.766;2024-02-04T05:15:06;1.00;;;1.00;;
14241;SDS011;7205;50.864;12.766;2024-02-04T05:17:35;1.20;;;1.10;;
14241;SDS011;7205;50.864;12.766;2024-02-04T05:20:02;0.90;;;0.90;;
14241;SDS011;7205;50.864;12.766;2024-02-04T05:22:30;0.90;;;0.90;;
14241;SDS011;7205;50.864;12.766;2024-02-04T05:24:57;0.80;;;0.80;;
14241;SDS011;7205;50.864;12.766;2024-02-04T05:27:23;0.90;;;0.90;;
14241;SDS011;7205;50.864;12.766;2024-02-04T05:29:51;0.80;;;0.80;;
14241;SDS011;7205;50.864;12.766;2024-02-04T05:32:17;1.00;;;1.00;;
14241;SDS011;7205;50.864;12.766;2024-02-04T05:34:46;1.17;;;1.00;;
14241;SDS011;7205;50.864;12.766;2024-02-04T05:37:12;0.90;;;0.90;;
14241;SDS011;7205;50.864;12.766;2024-02-04T05:39:39;0.80;;;0.80;;
14241;SDS011;7205;50.864;12.766;2024-02-04T05:42:06;0.90;;;0.90;;
14241;SDS011;7205;50.864;12.766;2024-02-04T05:44:33;1.03;;;1.03;;
14241;SDS011;7205;50.864;12.766;2024-02-04T05:46:59;0.70;;;0.70;;
14241;SDS011;7205;50.864;12.766;2024-02-04T05:49:27;0.80;;;0.80;;
14241;SDS011;7205;50.864;12.766;2024-02-04T05:51:55;0.77;;;0.77;;
14241;SDS011;7205;50.864;12.766;2024-02-04T05:54:21;0.77;;;0.77;;
14241;SDS011;7205;50.864;12.766;2024-02-04T05:56:48;1.90;;;0.73;;
14241;SDS011;7205;50.864;12.766;2024-02-04T05:59:15;0.80;;;0.80;;
14241;SDS011;7205;50.864;12.766;2024-02-04T06:01:42;0.80;;;0.80;;
14241;SDS011;7205;50.864;12.766;2024-02-04T06:04:10;0.90;;;0.90;;
14241;SDS011;7205;50.864;12.766;2024-02-04T06:06:36;0.63;;;0.63;;
14241;SDS011;7205;50.864;12.766;2024-02-04T06:09:05;0.57;;;0.57;;
14241;SDS011;7205;50.864;12.766;2024-02-04T06:11:31;1.77;;;1.67;;
14241;SDS011;7205;50.864;12.766;2024-02-04T06:13:58;1.10;;;1.10;;
14241;SDS011;7205;50.864;12.766;2024-02-04T06:16:25;0.60;;;0.60;;
14241;SDS011;7205;50.864;12.766;2024-02-04T06:18:52;0.70;;;0.70;;
14241;SDS011;7205;50.864;12.766;2024-02-04T06:21:20;0.90;;;0.50;;
14241;SDS011;7205;50.864;12.766;2024-02-04T06:23:47;1.53;;;0.77;;
14241;SDS011;7205;50.864;12.766;2024-02-04T06:26:15;0.50;;;0.50;;
14241;SDS011;7205;50.864;12.766;2024-02-04T06:28:42;1.87;;;0.80;;
14241;SDS011;7205;50.864;12.766;2024-02-04T06:31:11;1.00;;;0.90;;
14241;SDS011;7205;50.864;12.766;2024-02-04T06:33:38;0.90;;;0.90;;
14241;SDS011;7205;50.864;12.766;2024-02-04T06:36:08;0.70;;;0.70;;
14241;SDS011;7205;50.864;12.766;2024-02-04T06:38:35;0.80;;;0.70;;
14241;SDS011;7205;50.864;12.766;2024-02-04T06:41:02;0.50;;;0.50;;
14241;SDS011;7205;50.864;12.766;2024-02-04T06:43:30;1.53;;;0.50;;
14241;SDS011;7205;50.864;12.766;2024-02-04T06:45:57;0.50;;;0.50;;
14241;SDS011;7205;50.864;12.766;2024-02-04T06:48:23;0.30;;;0.30;;
14241;SDS011;7205;50.864;12.766;2024-02-04T06:50:50;1.17;;;0.60;;
14241;SDS011;7205;50.864;12.766;2024-02-04T06:53:17;0.20;;;0.20;;
14241;SDS011;7205;50.864;12.766;2024-02-04T06:55:44;0.80;;;0.47;;
14241;SDS011;7205;50.864;12.766;2024-02-04T06:58:11;0.30;;;0.30;;
14241;SDS011;7205;50.864;12.766;2024-02-04T07:00:39;0.40;;;0.40;;
14241;SDS011;7205;50.864;12.766;2024-02-04T07:03:06;0.30;;;0.30;;
14241;SDS011;7205;50.864;12.766;2024-02-04T07:05:33;0.30;;;0.30;;
14241;SDS011;7205;50.864;12.766;2024-02-04T07:07:59;0.40;;;0.40;;
14241;SDS011;7205;50.864;12.766;2024-02-04T07:10:26;0.30;;;0.30;;
14241;SDS011;7205;50.864;12.766;2024-02-04T07:12:53;2.10;;;0.40;;
14241;SDS011;7205;50.864;12.766;2024-02-04T07:15:20;1.90;;;0.70;;
14241;SDS011;7205;50.864;12.766;2024-02-04T07:17:48;0.60;;;0.60;;
14241;SDS011;7205;50.864;12.766;2024-02-04T07:20:15;1.77;;;0.50;;
14241;SDS011;7205;50.864;12.766;2024-02-04T07:22:41;0.60;;;0.50;;
14241;SDS011;7205;50.864;12.766;2024-02-04T07:25:09;0.60;;;0.60;;
14241;SDS011;7205;50.864;12.766;2024-02-04T07:27:36;0.50;;;0.50;;
14241;SDS011;7205;50.864;12.766;2024-02-04T07:30:03;0.43;;;0.43;;
14241;SDS011;7205;50.864;12.766;2024-02-04T07:32:30;0.23;;;0.23;;
14241;SDS011;7205;50.864;12.766;2024-02-04T07:35:01;0.40;;;0.30;;
14241;SDS011;7205;50.864;12.766;2024-02-04T07:37:28;0.47;;;0.43;;
14241;SDS011;7205;50.864;12.766;2024-02-04T07:39:54;0.50;;;0.50;;
14241;SDS011;7205;50.864;12.766;2024-02-04T07:42:21;0.33;;;0.33;;
14241;SDS011;7205;50.864;12.766;2024-02-04T07:44:48;0.73;;;0.40;;
14241;SDS011;7205;50.864;12.766;2024-02-04T07:47:15;0.47;;;0.47;;
14241;SDS011;7205;50.864;12.766;2024-02-04T07:49:42;0.20;;;0.20;;
14241;SDS011;7205;50.864;12.766;2024-02-04T07:52:10;1.50;;;0.40;;
14241;SDS011;7205;50.864;12.766;2024-02-04T07:54:37;1.23;;;0.30;;
14241;SDS011;7205;50.864;12.766;2024-02-04T07:57:04;1.03;;;0.30;;
14241;SDS011;7205;50.864;12.766;2024-02-04T07:59:30;0.40;;;0.27;;
14241;SDS011;7205;50.864;12.766;2024-02-04T08:01:58;0.10;;;0.10;;
14241;SDS011;7205;50.864;12.766;2024-02-04T08:04:24;0.30;;;0.30;;
14241;SDS011;7205;50.864;12.766;2024-02-04T08:06:51;0.60;;;0.30;;
14241;SDS011;7205;50.864;12.766;2024-02-04T08:09:19;0.20;;;0.20;;
14241;SDS011;7205;50.864;12.766;2024-02-04T08:11:46;1.10;;;0.20;;
14241;SDS011;7205;50.864;12.766;2024-02-04T08:14:13;0.40;;;0.40;;
14241;SDS011;7205;50.864;12.766;2024-02-04T08:16:42;0.87;;;0.40;;
14241;SDS011;7205;50.864;12.766;2024-02-04T08:19:11;0.27;;;0.23;;
14241;SDS011;7205;50.864;12.766;2024-02-04T08:21:40;0.20;;;0.20;;
14241;SDS011;7205;50.864;12.766;2024-02-04T08:24:06;1.63;;;0.50;;
14241;SDS011;7205;50.864;12.766;2024-02-04T08:26:35;0.30;;;0.30;;
14241;SDS011;7205;50.864;12.766;2024-02-04T08:29:01;0.40;;;0.30;;
14241;SDS011;7205;50.864;12.766;2024-02-04T08:31:29;0.93;;;0.30;;
14241;SDS011;7205;50.864;12.766;2024-02-04T08:33:56;0.30;;;0.30;;
14241;SDS011;7205;50.864;12.766;2024-02-04T08:36:23;0.40;;;0.40;;
14241;SDS011;7205;50.864;12.766;2024-02-04T08:38:50;0.40;;;0.40;;
14241;SDS011;7205;50.864;12.766;2024-02-04T08:41:17;0.30;;;0.30;;
14241;SDS011;7205;50.864;12.766;2024-02-04T08:43:45;0.70;;;0.60;;
14241;SDS011;7205;50.864;12.766;2024-02-04T08:46:12;0.50;;;0.50;;
14241;SDS011;7205;50.864;12.766;2024-02-04T08:48:39;1.70;;;0.50;;
14241;SDS011;7205;50.864;12.766;2024-02-04T08:51:10;0.30;;;0.30;;
14241;SDS011;7205;50.864;12.766;2024-02-04T08:53:37;0.20;;;0.20;;
14241;SDS011;7205;50.864;12.766;2024-02-04T08:56:05;0.37;;;0.37;;
14241;SDS011;7205;50.864;12.766;2024-02-04T08:58:32;0.40;;;0.40;;
14241;SDS011;7205;50.864;12.766;2024-02-04T09:01:00;1.23;;;0.50;;
14241;SDS011;7205;50.864;12.766;2024-02-04T09:03:27;0.40;;;0.40;;
14241;SDS011;7205;50.864;12.766;2024-02-04T09:05:54;0.50;;;0.50;;
14241;SDS011;7205;50.864;12.766;2024-02-04T09:08:24;0.40;;;0.40;;
14241;SDS011;7205;50.864;12.766;2024-02-04T09:10:51;0.50;;;0.50;;
14241;SDS011;7205;50.864;12.766;2024-02-04T09:13:19;0.40;;;0.40;;
14241;SDS011;7205;50.864;12.766;2024-02-04T09:15:45;0.30;;;0.30;;
14241;SDS011;7205;50.864;12.766;2024-02-04T09:18:14;0.40;;;0.40;;
14241;SDS011;7205;50.864;12.766;2024-02-04T09:20:46;1.20;;;1.10;;
14241;SDS011;7205;50.864;12.766;2024-02-04T09:23:13;1.53;;;1.20;;
14241;SDS011;7205;50.864;12.766;2024-02-04T09:25:41;0.63;;;0.30;;
14241;SDS011;7205;50.864;12.766;2024-02-04T09:28:08;0.30;;;0.30;;
14241;SDS011;7205;50.864;12.766;2024-02-04T09:30:36;0.40;;;0.40;;
14241;SDS011;7205;50.864;12.766;2024-02-04T09:33:03;0.83;;;0.53;;
14241;SDS011;7205;50.864;12.766;2024-02-04T09:35:31;0.50;;;0.50;;
14241;SDS011;7205;50.864;12.766;2024-02-04T09:38:00;0.30;;;0.30;;
14241;SDS011;7205;50.864;12.766;2024-02-04T09:40:29;1.00;;;0.50;;
14241;SDS011;7205;50.864;12.766;2024-02-04T09:42:57;0.53;;;0.53;;
14241;SDS011;7205;50.864;12.766;2024-02-04T09:45:25;0.70;;;0.67;;
14241;SDS011;7205;50.864;12.766;2024-02-04T09:47:52;0.50;;;0.50;;
14241;SDS011;7205;50.864;12.766;2024-02-04T09:50:20;0.30;;;0.30;;
14241;SDS011;7205;50.864;12.766;2024-02-04T09:52:49;0.30;;;0.30;;
14241;SDS011;7205;50.864;12.766;2024-02-04T09:55:16;0.50;;;0.50;;
14241;SDS011;7205;50.864;12.766;2024-02-04T09:57:46;0.50;;;0.50;;
14241;SDS011;7205;50.864;12.766;2024-02-04T10:00:13;0.50;;;0.50;;
14241;SDS011;7205;50.864;12.766;2024-02-04T10:02:44;0.40;;;0.40;;
14241;SDS011;7205;50.864;12.766;2024-02-04T10:05:13;0.20;;;0.20;;
14241;SDS011;7205;50.864;12.766;2024-02-04T10:07:40;0.30;;;0.30;;
14241;SDS011;7205;50.864;12.766;2024-02-04T10:10:08;0.40;;;0.40;;
14241;SDS011;7205;50.864;12.766;2024-02-04T10:12:36;0.20;;;0.20;;
14241;SDS011;7205;50.864;12.766;2024-02-04T10:15:04;0.40;;;0.40;;
14241;SDS011;7205;50.864;12.766;2024-02-04T10:17:32;0.60;;;0.60;;
14241;SDS011;7205;50.864;12.766;2024-02-04T10:20:00;1.07;;;0.90;;
14241;SDS011;7205;50.864;12.766;2024-02-04T10:22:27;0.70;;;0.70;;
14241;SDS011;7205;50.864;12.766;2024-02-04T10:25:04;0.90;;;0.80;;
14241;SDS011;7205;50.864;12.766;2024-02-04T10:27:33;0.70;;;0.70;;
14241;SDS011;7205;50.864;12.766;2024-02-04T10:30:00;1.07;;;0.60;;
14241;SDS011;7205;50.864;12.766;2024-02-04T10:32:27;0.63;;;0.63;;
14241;SDS011;7205;50.864;12.766;2024-02-04T10:34:54;1.07;;;0.70;;
14241;SDS011;7205;50.864;12.766;2024-02-04T10:37:21;0.70;;;0.70;;
14241;SDS011;7205;50.864;12.766;2024-02-04T10:39:48;0.40;;;0.40;;
14241;SDS011;7205;50.864;12.766;2024-02-04T10:42:14;0.40;;;0.40;;
14241;SDS011;7205;50.864;12.766;2024-02-04T10:44:45;0.73;;;0.63;;
14241;SDS011;7205;50.864;12.766;2024-02-04T10:47:16;0.60;;;0.60;;
14241;SDS011;7205;50.864;12.766;2024-02-04T10:49:49;0.50;;;0.50;;
14241;SDS011;7205;50.864;12.766;2024-02-04T10:52:18;0.53;;;0.53;;
14241;SDS011;7205;50.864;12.766;2024-02-04T10:54:46;0.50;;;0.50;;
14241;SDS011;7205;50.864;12.766;2024-02-04T10:57:17;0.67;;;0.57;;
14241;SDS011;7205;50.864;12.766;2024-02-04T10:59:48;0.60;;;0.60;;
14241;SDS011;7205;50.864;12.766;2024-02-04T11:02:15;0.60;;;0.60;;
14241;SDS011;7205;50.864;12.766;2024-02-04T11:04:43;0.50;;;0.50;;
14241;SDS011;7205;50.864;12.766;2024-02-04T11:07:11;0.60;;;0.60;;
14241;SDS011;7205;50.864;12.766;2024-02-04T11:09:40;0.60;;;0.60;;
14241;SDS011;7205;50.864;12.766;2024-02-04T11:12:08;0.73;;;0.73;;
14241;SDS011;7205;50.864;12.766;2024-02-04T11:14:38;0.67;;;0.67;;
14241;SDS011;7205;50.864;12.766;2024-02-04T11:17:17;0.80;;;0.80;;
14241;SDS011;7205;50.864;12.766;2024-02-04T11:19:59;0.60;;;0.60;;
14241;SDS011;7205;50.864;12.766;2024-02-04T11:22:42;0.80;;;0.80;;
14241;SDS011;7205;50.864;12.766;2024-02-04T11:25:29;0.80;;;0.80;;
14241;SDS011;7205;50.864;12.766;2024-02-04T11:28:08;1.00;;;1.00;;
14241;SDS011;7205;50.864;12.766;2024-02-04T11:30:35;0.80;;;0.80;;
14241;SDS011;7205;50.864;12.766;2024-02-04T11:33:04;1.30;;;1.13;;
14241;SDS011;7205;50.864;12.766;2024-02-04T11:35:31;0.80;;;0.80;;
14241;SDS011;7205;50.864;12.766;2024-02-04T11:37:59;1.63;;;0.80;;
14241;SDS011;7205;50.864;12.766;2024-02-04T11:40:30;0.93;;;0.60;;
14241;SDS011;7205;50.864;12.766;2024-02-04T11:43:03;0.70;;;0.70;;
14241;SDS011;7205;50.864;12.766;2024-02-04T11:45:31;0.70;;;0.70;;
14241;SDS011;7205;50.864;12.766;2024-02-04T11:48:01;4.33;;;1.40;;
14241;SDS011;7205;50.864;12.766;2024-02-04T11:50:29;0.70;;;0.70;;
14241;SDS011;7205;50.864;12.766;2024-02-04T11:53:06;1.37;;;0.70;;
14241;SDS011;7205;50.864;12.766;2024-02-04T11:55:34;0.73;;;0.73;;
14241;SDS011;7205;50.864;12.766;2024-02-04T11:58:05;0.80;;;0.80;;
14241;SDS011;7205;50.864;12.766;2024-02-04T12:00:33;1.03;;;0.87;;
14241;SDS011;7205;50.864;12.766;2024-02-04T12:03:00;0.80;;;0.80;;
14241;SDS011;7205;50.864;12.766;2024-02-04T12:05:31;0.60;;;0.60;;
14241;SDS011;7205;50.864;12.766;2024-02-04T12:08:00;0.77;;;0.60;;
14241;SDS011;7205;50.864;12.766;2024-02-04T12:10:28;0.87;;;0.87;;
14241;SDS011;7205;50.864;12.766;2024-02-04T12:12:57;0.83;;;0.70;;
14241;SDS011;7205;50.864;12.766;2024-02-04T12:15:25;0.60;;;0.60;;
14241;SDS011;7205;50.864;12.766;2024-02-04T12:17:52;0.40;;;0.40;;
14241;SDS011;7205;50.864;12.766;2024-02-04T12:20:19;0.47;;;0.47;;
14241;SDS011;7205;50.864;12.766;2024-02-04T12:22:47;8.13;;;2.90;;
14241;SDS011;7205;50.864;12.766;2024-02-04T12:25:15;0.80;;;0.80;;
14241;SDS011;7205;50.864;12.766;2024-02-04T12:27:43;0.60;;;0.60;;
14241;SDS011;7205;50.864;12.766;2024-02-04T12:30:13;0.47;;;0.40;;
14241;SDS011;7205;50.864;12.766;2024-02-04T12:32:40;0.30;;;0.30;;
14241;SDS011;7205;50.864;12.766;2024-02-04T12:35:07;0.60;;;0.60;;
14241;SDS011;7205;50.864;12.766;2024-02-04T12:37:34;0.70;;;0.63;;
14241;SDS011;7205;50.864;12.766;2024-02-04T12:40:03;0.97;;;0.70;;
14241;SDS011;7205;50.864;12.766;2024-02-04T12:42:31;0.60;;;0.60;;
14241;SDS011;7205;50.864;12.766;2024-02-04T12:44:59;0.70;;;0.70;;
14241;SDS011;7205;50.864;12.766;2024-02-04T12:47:26;1.90;;;0.80;;
14241;SDS011;7205;50.864;12.766;2024-02-04T12:49:57;2.83;;;0.70;;
14241;SDS011;7205;50.864;12.766;2024-02-04T12:52:26;1.27;;;1.17;;
14241;SDS011;7205;50.864;12.766;2024-02-04T12:54:52;0.90;;;0.90;;
14241;SDS011;7205;50.864;12.766;2024-02-04T12:57:24;1.40;;;1.23;;
14241;SDS011;7205;50.864;12.766;2024-02-04T12:59:51;2.93;;;2.73;;
14241;SDS011;7205;50.864;12.766;2024-02-04T13:02:18;1.17;;;1.17;;
14241;SDS011;7205;50.864;12.766;2024-02-04T13:04:46;1.67;;;1.30;;
14241;SDS011;7205;50.864;12.766;2024-02-04T13:07:13;1.60;;;1.50;;
14241;SDS011;7205;50.864;12.766;2024-02-04T13:09:42;1.70;;;1.60;;
14241;SDS011;7205;50.864;12.766;2024-02-04T13:12:10;1.10;;;1.00;;
14241;SDS011;7205;50.864;12.766;2024-02-04T13:14:42;2.60;;;1.20;;
14241;SDS011;7205;50.864;12.766;2024-02-04T13:17:09;0.80;;;0.80;;
14241;SDS011;7205;50.864;12.766;2024-02-04T13:19:37;1.80;;;1.13;;
14241;SDS011;7205;50.864;12.766;2024-02-04T13:22:04;0.80;;;0.80;;
14241;SDS011;7205;50.864;12.766;2024-02-04T13:24:32;1.00;;;1.00;;
14241;SDS011;7205;50.864;12.766;2024-02-04T13:26:59;1.53;;;1.43;;
14241;SDS011;7205;50.864;12.766;2024-02-04T13:29:28;0.70;;;0.70;;
14241;SDS011;7205;50.864;12.766;2024-02-04T13:31:56;0.90;;;0.90;;
14241;SDS011;7205;50.864;12.766;2024-02-04T13:34:23;0.50;;;0.50;;
14241;SDS011;7205;50.864;12.766;2024-02-04T13:36:50;2.23;;;2.13;;
14241;SDS011;7205;50.864;12.766;2024-02-04T13:39:17;1.17;;;1.17;;
14241;SDS011;7205;50.864;12.766;2024-02-04T13:41:44;0.67;;;0.60;;
14241;SDS011;7205;50.864;12.766;2024-02-04T13:44:11;1.13;;;1.03;;
14241;SDS011;7205;50.864;12.766;2024-02-04T13:46:38;0.97;;;0.97;;
14241;SDS011;7205;50.864;12.766;2024-02-04T13:49:09;1.07;;;1.07;;
14241;SDS011;7205;50.864;12.766;2024-02-04T13:51:37;1.00;;;1.00;;
14241;SDS011;7205;50.864;12.766;2024-02-04T13:54:04;0.80;;;0.80;;
14241;SDS011;7205;50.864;12.766;2024-02-04T13:56:30;1.00;;;1.00;;
14241;SDS011;7205;50.864;12.766;2024-02-04T13:58:58;0.90;;;0.90;;
14241;SDS011;7205;50.864;12.766;2024-02-04T14:01:25;1.30;;;1.10;;
14241;SDS011;7205;50.864;12.766;2024-02-04T14:03:52;0.80;;;0.80;;
14241;SDS011;7205;50.864;12.766;2024-02-04T14:06:20;1.47;;;1.40;;
14241;SDS011;7205;50.864;12.766;2024-02-04T14:08:46;1.30;;;1.30;;
14241;SDS011;7205;50.864;12.766;2024-02-04T14:11:13;1.50;;;1.10;;
14241;SDS011;7205;50.864;12.766;2024-02-04T14:13:40;1.00;;;1.00;;
14241;SDS011;7205;50.864;12.766;2024-02-04T14:16:07;0.80;;;0.80;;
14241;SDS011;7205;50.864;12.766;2024-02-04T14:18:34;1.60;;;1.50;;
14241;SDS011;7205;50.864;12.766;2024-02-04T14:21:02;0.90;;;0.90;;
14241;SDS011;7205;50.864;12.766;2024-02-04T14:23:32;1.50;;;1.40;;
14241;SDS011;7205;50.864;12.766;2024-02-04T14:26:01;0.80;;;0.80;;
14241;SDS011;7205;50.864;12.766;2024-02-04T14:28:28;0.70;;;0.70;;
14241;SDS011;7205;50.864;12.766;2024-02-04T14:30:55;0.67;;;0.67;;
14241;SDS011;7205;50.864;12.766;2024-02-04T14:33:22;0.50;;;0.50;;
14241;SDS011;7205;50.864;12.766;2024-02-04T14:35:48;0.93;;;0.93;;
14241;SDS011;7205;50.864;12.766;2024-02-04T14:38:15;0.70;;;0.70;;
14241;SDS011;7205;50.864;12.766;2024-02-04T14:40:43;0.80;;;0.80;;
14241;SDS011;7205;50.864;12.766;2024-02-04T14:43:14;0.80;;;0.80;;
14241;SDS011;7205;50.864;12.766;2024-02-04T14:45:43;1.10;;;1.10;;
14241;SDS011;7205;50.864;12.766;2024-02-04T14:48:10;0.80;;;0.80;;
14241;SDS011;7205;50.864;12.766;2024-02-04T14:50:39;0.90;;;0.90;;
14241;SDS011;7205;50.864;12.766;2024-02-04T14:53:09;1.27;;;1.17;;